createdAt,value
2023-03-23T00:01:09.770Z,151.74
2023-03-23T00:05:09.754Z,150.31
2023-03-23T00:09:09.693Z,151.20
2023-03-23T00:13:09.698Z,150.01
2023-03-23T00:17:09.624Z,147.46
2023-03-23T00:21:09.582Z,147.55
2023-03-23T00:25:09.585Z,148.27
2023-03-23T00:29:09.540Z,146.37
2023-03-23T00:33:09.541Z,146.64
2023-03-23T00:37:09.456Z,145.26
2023-03-23T00:41:09.418Z,141.90
2023-03-23T00:45:09.405Z,143.05
2023-03-23T00:49:09.330Z,143.24
2023-03-23T00:53:09.310Z,139.58
2023-03-23T00:57:09.287Z,139.20
2023-03-23T01:01:09.248Z,142.81
2023-03-23T01:05:09.177Z,141.41
2023-03-23T01:09:09.159Z,139.79
2023-03-23T01:13:09.137Z,140.24
2023-03-23T01:17:09.091Z,138.52
2023-03-23T01:21:09.062Z,139.32
2023-03-23T01:25:09.061Z,139.81
2023-03-23T01:29:08.998Z,137.89
2023-03-23T01:33:08.946Z,133.71
2023-03-23T01:37:08.938Z,138.15
2023-03-23T01:41:08.917Z,135.22
2023-03-23T01:45:08.884Z,134.51
2023-03-23T01:49:08.903Z,131.99
2023-03-23T01:53:09.003Z,136.16
2023-03-23T01:57:09.083Z,136.12
2023-03-23T02:01:09.212Z,135.09
2023-03-23T02:05:09.170Z,133.43
2023-03-23T02:09:10.621Z,133.24
2023-03-23T02:13:11.148Z,132.48
2023-03-23T02:17:09.319Z,133.35
2023-03-23T02:21:09.223Z,129.48
2023-03-23T02:25:09.259Z,128.35
2023-03-23T02:29:09.199Z,128.51
2023-03-23T02:33:09.121Z,127.95
2023-03-23T02:37:09.130Z,128.01
2023-03-23T02:41:09.084Z,128.65
2023-03-23T02:45:09.050Z,129.68
2023-03-23T02:49:08.973Z,128.62
2023-03-23T02:53:08.942Z,126.32
2023-03-23T02:57:08.979Z,125.69
2023-03-23T03:01:08.904Z,125.87
2023-03-23T03:05:08.824Z,123.74
2023-03-23T03:09:08.847Z,126.61
2023-03-23T03:13:08.781Z,125.93
2023-03-23T03:17:08.742Z,126.02
2023-03-23T03:21:08.664Z,124.74
2023-03-23T03:25:18.212Z,124.38
2023-03-23T03:29:09.621Z,126.50
2023-03-23T03:33:08.605Z,125.93
2023-03-23T03:37:08.590Z,125.49
2023-03-23T03:41:08.568Z,124.88
2023-03-23T03:45:08.541Z,125.29
2023-03-23T03:49:08.520Z,125.19
2023-03-23T03:53:08.469Z,122.56
2023-03-23T03:57:08.452Z,123.86
2023-03-23T04:01:08.398Z,121.38
2023-03-23T04:05:08.363Z,124.21
2023-03-23T04:09:08.494Z,122.54
2023-03-23T04:13:08.286Z,120.91
2023-03-23T04:17:08.241Z,120.25
2023-03-23T04:21:08.232Z,118.51
2023-03-23T04:25:08.162Z,121.08
2023-03-23T04:29:08.155Z,118.51
2023-03-23T04:33:08.082Z,121.38
2023-03-23T04:37:08.054Z,118.67
2023-03-23T04:41:08.185Z,121.58
2023-03-23T04:45:08.309Z,117.77
2023-03-23T04:49:08.435Z,118.68
2023-03-23T04:53:08.632Z,120.43
2023-03-23T04:57:08.778Z,117.65
2023-03-23T05:01:09.098Z,118.29
2023-03-23T05:05:08.974Z,116.05
2023-03-23T05:09:09.068Z,119.94
2023-03-23T05:13:09.293Z,121.24
2023-03-23T05:17:09.409Z,117.56
2023-03-23T05:21:09.650Z,118.61
2023-03-23T05:25:09.712Z,114.78
2023-03-23T05:29:09.821Z,116.90
2023-03-23T05:33:09.949Z,109.93
2023-03-23T05:37:11.217Z,103.27
2023-03-23T05:41:10.269Z,104.86
2023-03-23T05:45:10.433Z,104.01
2023-03-23T05:49:10.547Z,101.42
2023-03-23T05:53:12.592Z,99.36
2023-03-23T05:57:10.837Z,96.38
2023-03-23T06:01:10.981Z,99.28
2023-03-23T06:05:11.908Z,95.21
2023-03-23T06:09:10.908Z,98.25
2023-03-23T06:13:10.841Z,100.34
2023-03-23T06:17:10.935Z,96.79
2023-03-23T06:21:11.101Z,93.57
2023-03-23T06:25:12.037Z,95.41
2023-03-23T06:29:11.022Z,92.42
2023-03-23T06:33:10.988Z,80.17
2023-03-23T06:37:10.974Z,38.44
2023-03-23T06:41:11.091Z,33.85
2023-03-23T06:45:11.257Z,54.43
2023-03-23T06:49:11.359Z,58.45
2023-03-23T06:53:11.558Z,43.40
2023-03-23T06:57:11.707Z,37.78
2023-03-23T07:01:11.686Z,59.66
2023-03-23T07:05:12.132Z,53.04
2023-03-23T07:09:11.833Z,58.73
2023-03-23T07:13:11.869Z,38.25
2023-03-23T07:17:11.884Z,37.04
2023-03-23T07:21:11.871Z,26.73
2023-03-23T07:25:11.934Z,26.14
2023-03-23T07:29:12.093Z,27.53
2023-03-23T07:33:12.185Z,25.00
2023-03-23T07:37:12.331Z,30.63
2023-03-23T07:41:12.570Z,25.23
2023-03-23T07:45:12.714Z,26.12
2023-03-23T07:49:12.716Z,28.34
2023-03-23T07:53:12.642Z,27.73
2023-03-23T07:57:12.647Z,26.88
2023-03-23T08:01:12.554Z,25.41
2023-03-23T08:05:12.518Z,27.26
2023-03-23T08:09:12.540Z,29.70
2023-03-23T08:13:12.561Z,26.68
2023-03-23T08:17:12.454Z,25.67
2023-03-23T08:21:12.433Z,27.28
2023-03-23T08:25:12.345Z,25.94
2023-03-23T08:29:12.314Z,26.07
2023-03-23T08:33:12.576Z,25.43
2023-03-23T08:37:12.633Z,48.33
2023-03-23T08:41:12.317Z,67.06
2023-03-23T08:45:12.370Z,88.78
2023-03-23T08:49:12.609Z,107.10
2023-03-23T08:53:13.158Z,121.27
2023-03-23T08:57:13.121Z,133.31
2023-03-23T09:01:12.925Z,147.08
2023-03-23T09:05:12.985Z,161.32
2023-03-23T09:09:12.971Z,181.73
2023-03-23T09:13:12.938Z,195.57
2023-03-23T09:17:13.075Z,210.77
2023-03-23T09:21:18.922Z,212.50
2023-03-23T09:25:14.008Z,210.88
2023-03-23T09:29:13.006Z,199.65
2023-03-23T09:33:13.183Z,205.24
2023-03-23T09:37:13.108Z,197.11
2023-03-23T09:41:13.061Z,196.96
2023-03-23T09:45:13.049Z,179.75
2023-03-23T09:49:13.025Z,183.97
2023-03-23T09:53:12.989Z,185.04
2023-03-23T09:57:12.935Z,191.03
2023-03-23T10:01:12.889Z,196.71
2023-03-23T10:05:12.840Z,202.67
2023-03-23T10:09:12.836Z,201.79
2023-03-23T10:13:12.777Z,204.50
2023-03-23T10:17:12.785Z,207.69
2023-03-23T10:21:12.737Z,215.11
2023-03-23T10:25:12.860Z,217.36
2023-03-23T10:29:12.631Z,219.81
2023-03-23T10:33:13.161Z,216.91
2023-03-23T10:37:12.803Z,199.38
2023-03-23T10:41:13.174Z,221.16
2023-03-23T10:45:12.899Z,229.53
2023-03-23T10:49:13.048Z,242.11
2023-03-23T10:53:13.255Z,249.58
2023-03-23T10:57:13.399Z,249.81
2023-03-23T11:01:13.475Z,250.00
2023-03-23T11:05:20.002Z,139.53
2023-03-23T11:09:14.561Z,45.23
2023-03-23T11:13:13.492Z,0.00
2023-03-23T11:17:15.935Z,11.88
2023-03-23T11:21:13.458Z,32.86
2023-03-23T11:25:14.468Z,38.68
2023-03-23T11:29:13.405Z,23.23
2023-03-23T11:33:13.323Z,61.20
2023-03-23T11:37:13.306Z,72.37
2023-03-23T11:41:13.275Z,109.15
2023-03-23T11:45:13.209Z,137.13
2023-03-23T11:49:23.206Z,157.40
2023-03-23T11:53:14.143Z,166.58
2023-03-23T11:57:13.128Z,186.01
2023-03-23T12:01:13.106Z,208.54
2023-03-23T12:05:13.190Z,221.04
2023-03-23T12:09:13.405Z,222.36
2023-03-23T12:13:16.088Z,226.26
2023-03-23T12:17:14.503Z,226.10
2023-03-23T12:21:14.499Z,232.75
2023-03-23T12:25:13.432Z,232.48
2023-03-23T12:29:13.457Z,219.88
2023-03-23T12:33:13.682Z,220.60
2023-03-23T12:37:13.873Z,219.06
2023-03-23T12:41:13.962Z,215.05
2023-03-23T12:45:14.161Z,211.71
2023-03-23T12:49:14.359Z,206.46
2023-03-23T12:53:14.484Z,203.66
2023-03-23T12:57:14.691Z,202.11
2023-03-23T13:01:14.807Z,198.96
2023-03-23T13:05:14.998Z,196.27
2023-03-23T13:09:15.172Z,194.53
2023-03-23T13:13:15.292Z,193.72
2023-03-23T13:17:16.226Z,189.14
2023-03-23T13:21:15.202Z,186.53
2023-03-23T13:25:15.153Z,186.45
2023-03-23T13:29:15.182Z,184.80
2023-03-23T13:33:15.267Z,178.36
2023-03-23T13:37:15.330Z,178.35
2023-03-23T13:41:15.382Z,177.78
2023-03-23T13:45:15.458Z,176.90
2023-03-23T13:49:16.574Z,178.89
2023-03-23T13:53:15.568Z,171.77
2023-03-23T13:57:15.618Z,172.30
2023-03-23T14:01:15.672Z,171.54
2023-03-23T14:05:15.702Z,171.36
2023-03-23T14:09:15.771Z,172.65
2023-03-23T14:13:15.786Z,174.57
2023-03-23T14:17:15.847Z,173.79
2023-03-23T14:21:15.963Z,175.37
2023-03-23T14:25:15.931Z,174.38
2023-03-23T14:29:19.512Z,171.44
2023-03-23T14:33:16.219Z,168.19
2023-03-23T14:37:15.915Z,167.82
2023-03-23T14:41:15.910Z,167.32
2023-03-23T14:45:15.823Z,165.97
2023-03-23T14:49:15.841Z,165.73
2023-03-23T14:53:15.804Z,162.89
2023-03-23T14:57:15.727Z,165.42
2023-03-23T15:01:15.777Z,160.16
2023-03-23T15:05:15.697Z,154.11
2023-03-23T15:09:15.670Z,152.15
2023-03-23T15:13:15.574Z,152.47
2023-03-23T15:17:15.562Z,153.08
2023-03-23T15:21:15.556Z,161.43
2023-03-23T15:25:15.523Z,154.74
2023-03-23T15:29:15.448Z,155.21
2023-03-23T15:33:16.468Z,155.53
2023-03-23T15:37:20.465Z,154.28
2023-03-23T15:41:16.356Z,152.48
2023-03-23T15:45:15.304Z,148.66
2023-03-23T15:49:15.285Z,144.49
2023-03-23T15:53:15.269Z,150.05
2023-03-23T15:57:15.245Z,150.89
2023-03-23T16:01:15.211Z,148.79
2023-03-23T16:05:15.210Z,151.74
2023-03-23T16:09:15.233Z,150.67
2023-03-23T16:13:15.273Z,149.59
2023-03-23T16:17:15.388Z,147.09
2023-03-23T16:21:15.457Z,148.44
2023-03-23T16:25:15.564Z,147.42
2023-03-23T16:29:28.379Z,146.45
2023-03-23T16:33:16.698Z,146.71
2023-03-23T16:37:15.559Z,145.86
2023-03-23T16:41:15.592Z,146.69
2023-03-23T16:45:15.769Z,143.52
2023-03-23T16:49:15.950Z,145.59
2023-03-23T16:53:16.166Z,139.75
2023-03-23T16:57:16.417Z,144.45
2023-03-23T17:01:16.389Z,136.17
2023-03-23T17:05:16.324Z,143.85
2023-03-23T17:09:16.292Z,144.56
2023-03-23T17:13:16.275Z,141.33
2023-03-23T17:17:16.186Z,134.02
2023-03-23T17:21:16.155Z,144.68
2023-03-23T17:25:16.140Z,146.50
2023-03-23T17:29:16.075Z,135.91
2023-03-23T17:33:16.094Z,141.95
2023-03-23T17:37:16.027Z,145.92
2023-03-23T17:41:15.995Z,148.06
2023-03-23T17:45:16.015Z,141.25
2023-03-23T17:49:15.900Z,146.75
2023-03-23T17:53:15.869Z,145.33
2023-03-23T17:57:15.851Z,144.42
2023-03-23T18:01:15.839Z,147.24
2023-03-23T18:05:15.993Z,141.93
2023-03-23T18:09:15.751Z,144.69
2023-03-23T18:13:15.694Z,145.84
2023-03-23T18:17:15.784Z,146.33
2023-03-23T18:21:15.871Z,147.09
2023-03-23T18:25:15.967Z,147.87
2023-03-23T18:29:16.099Z,141.91
2023-03-23T18:33:16.698Z,157.87
2023-03-23T18:37:16.234Z,155.71
2023-03-23T18:41:16.294Z,157.28
2023-03-23T18:45:16.439Z,157.03
2023-03-23T18:49:16.597Z,157.44
2023-03-23T18:53:16.717Z,157.54
2023-03-23T18:57:16.929Z,159.72
2023-03-23T19:01:17.053Z,159.55
2023-03-23T19:05:17.190Z,158.64
2023-03-23T19:09:17.375Z,158.23
2023-03-23T19:13:17.605Z,157.02
2023-03-23T19:17:17.702Z,155.43
2023-03-23T19:21:20.480Z,156.85
2023-03-23T19:25:18.922Z,154.89
2023-03-23T19:29:25.401Z,153.96
2023-03-23T19:33:18.869Z,154.34
2023-03-23T19:37:17.833Z,154.07
2023-03-23T19:41:19.102Z,154.06
2023-03-23T19:45:17.931Z,153.15
2023-03-23T19:49:17.933Z,152.79
2023-03-23T19:53:19.171Z,153.48
2023-03-23T19:57:17.823Z,150.84
2023-03-23T20:01:17.817Z,151.28
2023-03-23T20:05:17.782Z,150.00
2023-03-23T20:09:18.498Z,148.17
2023-03-23T20:13:17.975Z,147.81
2023-03-23T20:17:17.847Z,146.60
2023-03-23T20:21:19.922Z,145.82
2023-03-23T20:25:18.043Z,147.79
2023-03-23T20:29:18.130Z,146.56
2023-03-23T20:33:18.315Z,146.45
2023-03-23T20:37:18.490Z,144.75
2023-03-23T20:41:18.566Z,146.58
2023-03-23T20:45:18.690Z,147.37
2023-03-23T20:49:18.760Z,147.72
2023-03-23T20:53:18.809Z,147.54
2023-03-23T20:57:18.842Z,148.67
2023-03-23T21:01:18.919Z,148.91
2023-03-23T21:05:18.830Z,148.20
2023-03-23T21:09:18.796Z,148.73
2023-03-23T21:13:18.810Z,149.98
2023-03-23T21:17:18.802Z,148.81
2023-03-23T21:21:18.760Z,150.33
2023-03-23T21:25:18.923Z,150.31
2023-03-23T21:29:18.786Z,149.44
2023-03-23T21:33:18.816Z,151.32
2023-03-23T21:37:18.758Z,151.62
2023-03-23T21:41:18.870Z,150.41
2023-03-23T21:45:18.814Z,152.79
2023-03-23T21:49:18.830Z,151.64
2023-03-23T21:53:18.898Z,149.19
2023-03-23T21:57:18.932Z,150.96
2023-03-23T22:01:18.975Z,150.26
2023-03-23T22:05:19.018Z,151.43
2023-03-23T22:09:19.069Z,151.85
2023-03-23T22:13:19.272Z,148.70
2023-03-23T22:17:19.263Z,150.60
2023-03-23T22:21:19.303Z,151.69
2023-03-23T22:25:19.343Z,151.13
2023-03-23T22:29:19.461Z,152.05
2023-03-23T22:33:19.549Z,150.63
2023-03-23T22:37:19.648Z,152.54
2023-03-23T22:41:19.726Z,151.51
2023-03-23T22:45:19.824Z,150.68
2023-03-23T22:49:19.958Z,150.23
2023-03-23T22:53:20.003Z,148.17
2023-03-23T22:57:20.116Z,149.06
2023-03-23T23:01:20.225Z,149.40
2023-03-23T23:05:20.386Z,147.95
2023-03-23T23:09:20.411Z,147.64
2023-03-23T23:13:20.481Z,148.36
2023-03-23T23:17:20.579Z,146.67
2023-03-23T23:21:20.676Z,147.04
2023-03-23T23:25:20.760Z,147.11
2023-03-23T23:29:20.900Z,145.17
2023-03-23T23:33:20.959Z,144.96
2023-03-23T23:37:21.057Z,146.65
2023-03-23T23:41:21.134Z,146.33
2023-03-23T23:45:21.244Z,145.38
2023-03-23T23:49:21.363Z,145.24
2023-03-23T23:53:21.497Z,145.98
2023-03-23T23:57:21.516Z,145.64
